Time;durP1;ratioP1;P1;durP2;ratioP2;P2;SDS_P1;SDS_P2;PMS_P1;PMS_P2;Temp;Humidity;BMP_temperature;BMP_pressure;BME280_temperature;BME280_humidity;BME280_pressure;Samples;Min_cycle;Max_cycle;Signal;HPM_P1;HPM_P2
2023/04/19 00:00:34;;;;;;;26.63;19.50;;;12.00;43.30;;;;;;4993268;28;20767;-75
2023/04/19 00:03:00;;;;;;;27.40;19.13;;;12.10;43.00;;;;;;4992473;28;20506;-74
2023/04/19 00:05:27;;;;;;;30.85;19.90;;;12.10;43.00;;;;;;4993102;28;20391;-74
2023/04/19 00:07:52;;;;;;;25.25;18.17;;;12.00;43.60;;;;;;4992953;28;20402;-75
2023/04/19 00:10:18;;;;;;;28.27;19.30;;;12.00;42.70;;;;;;4991988;28;20479;-74
2023/04/19 00:12:43;;;;;;;27.77;19.60;;;12.00;42.80;;;;;;4992604;28;20406;-74
2023/04/19 00:15:09;;;;;;;27.48;19.88;;;12.00;44.30;;;;;;4992827;28;20417;-74
2023/04/19 00:17:35;;;;;;;29.30;19.92;;;12.00;44.30;;;;;;4993003;28;20395;-74
2023/04/19 00:20:00;;;;;;;28.90;20.20;;;12.00;44.60;;;;;;4992851;28;20526;-74
2023/04/19 00:22:26;;;;;;;31.08;20.35;;;12.00;44.20;;;;;;4992891;28;20456;-75
2023/04/19 00:24:52;;;;;;;28.25;20.25;;;12.00;44.40;;;;;;4993244;28;20383;-75
2023/04/19 00:27:18;;;;;;;29.42;20.17;;;12.00;44.80;;;;;;4992885;28;20386;-74
2023/04/19 00:29:43;;;;;;;29.63;20.97;;;12.00;45.90;;;;;;4991452;28;20466;-74
2023/04/19 00:32:09;;;;;;;27.13;19.83;;;11.80;46.50;;;;;;4992079;28;20391;-74
2023/04/19 00:34:35;;;;;;;26.70;19.20;;;11.90;45.90;;;;;;4991986;28;20394;-74
2023/04/19 00:37:03;;;;;;;25.88;18.80;;;12.00;45.70;;;;;;4993363;28;20386;-75
2023/04/19 00:39:29;;;;;;;28.75;20.20;;;12.00;46.00;;;;;;4993584;28;20876;-75
2023/04/19 00:41:56;;;;;;;28.92;19.38;;;11.90;46.60;;;;;;4991298;28;20498;-74
2023/04/19 00:44:22;;;;;;;30.17;19.33;;;12.00;46.70;;;;;;4992482;28;20394;-75
2023/04/19 00:46:48;;;;;;;27.63;19.67;;;12.10;46.50;;;;;;4992468;28;20387;-74
2023/04/19 00:49:14;;;;;;;32.33;19.77;;;12.00;46.80;;;;;;4993213;28;20488;-74
2023/04/19 00:51:39;;;;;;;28.45;19.55;;;12.00;46.80;;;;;;4992947;28;20387;-74
2023/04/19 00:54:07;;;;;;;27.25;19.40;;;12.00;47.30;;;;;;4994307;28;20385;-74
2023/04/19 00:56:33;;;;;;;30.17;20.15;;;12.00;48.20;;;;;;4995347;28;20393;-74
2023/04/19 00:58:59;;;;;;;29.70;19.60;;;12.00;47.90;;;;;;4995180;28;20496;-75
2023/04/19 01:01:24;;;;;;;31.27;19.92;;;12.00;48.00;;;;;;4993414;28;20919;-75
2023/04/19 01:03:50;;;;;;;28.95;20.13;;;12.00;47.80;;;;;;4994130;28;20889;-74
2023/04/19 01:06:16;;;;;;;28.48;19.83;;;12.00;48.20;;;;;;4992742;28;20434;-73
2023/04/19 01:08:41;;;;;;;33.75;20.70;;;12.00;48.50;;;;;;4992247;28;20394;-73
2023/04/19 01:11:07;;;;;;;31.27;20.10;;;12.00;48.80;;;;;;4991260;28;20485;-74
2023/04/19 01:13:33;;;;;;;30.47;19.73;;;12.00;49.10;;;;;;4991656;28;20398;-76
2023/04/19 01:15:59;;;;;;;30.13;20.15;;;12.00;49.60;;;;;;4991849;28;20393;-73
2023/04/19 01:18:25;;;;;;;29.63;20.83;;;12.00;49.80;;;;;;4990513;28;20413;-74
2023/04/19 01:20:51;;;;;;;29.95;19.95;;;11.90;50.90;;;;;;4991261;28;20406;-74
2023/04/19 01:23:17;;;;;;;30.73;20.00;;;11.90;51.30;;;;;;4991564;28;20386;-74
2023/04/19 01:25:42;;;;;;;28.95;20.33;;;12.00;51.10;;;;;;4991511;28;20387;-74
2023/04/19 01:28:08;;;;;;;31.33;20.02;;;12.00;50.90;;;;;;4991645;28;20390;-74
2023/04/19 01:30:34;;;;;;;29.83;19.83;;;12.10;51.20;;;;;;4991901;28;21013;-74
2023/04/19 01:33:00;;;;;;;32.37;21.70;;;12.10;51.40;;;;;;4990991;28;20457;-74
2023/04/19 01:35:25;;;;;;;34.30;20.90;;;12.10;51.60;;;;;;4991681;28;20398;-74
2023/04/19 01:37:54;;;;;;;33.20;20.67;;;12.10;51.70;;;;;;4991664;28;20394;-74
2023/04/19 01:40:21;;;;;;;31.73;21.35;;;12.10;52.00;;;;;;4991695;28;20417;-74
2023/04/19 01:42:47;;;;;;;31.92;20.90;;;12.00;52.50;;;;;;4991049;28;20404;-74
2023/04/19 01:45:12;;;;;;;32.53;21.40;;;12.10;52.60;;;;;;4993648;28;20386;-75
2023/04/19 01:47:38;;;;;;;31.50;21.10;;;12.00;53.20;;;;;;4998646;28;20379;-75
2023/04/19 01:50:04;;;;;;;32.23;20.97;;;12.10;53.40;;;;;;4996665;28;20421;-75
2023/04/19 01:52:29;;;;;;;32.92;21.13;;;12.00;54.40;;;;;;4996056;28;20403;-75
2023/04/19 01:54:55;;;;;;;33.50;21.13;;;12.00;54.10;;;;;;4998842;28;20474;-74
2023/04/19 01:57:20;;;;;;;34.50;21.43;;;12.00;54.30;;;;;;4998584;28;20386;-74
2023/04/19 01:59:47;;;;;;;32.53;21.30;;;12.10;54.90;;;;;;4995867;28;20391;-75
2023/04/19 02:02:13;;;;;;;33.90;21.47;;;12.00;55.30;;;;;;4995619;28;20451;-75
2023/04/19 02:04:38;;;;;;;31.13;21.73;;;12.00;56.40;;;;;;4994812;28;20397;-73
2023/04/19 02:07:04;;;;;;;35.10;22.47;;;12.00;56.50;;;;;;4995276;28;20422;-74
2023/04/19 02:09:29;;;;;;;32.90;22.40;;;12.10;55.90;;;;;;4995079;28;20509;-74
2023/04/19 02:11:55;;;;;;;34.30;21.27;;;12.10;56.10;;;;;;4994571;28;20485;-73
2023/04/19 02:14:21;;;;;;;34.05;21.67;;;12.10;56.80;;;;;;4995492;28;20397;-73
2023/04/19 02:16:47;;;;;;;31.67;21.50;;;12.10;57.00;;;;;;4996831;28;20401;-74
2023/04/19 02:19:12;;;;;;;29.90;20.97;;;12.00;57.70;;;;;;4995875;28;20808;-74
2023/04/19 02:21:38;;;;;;;30.73;21.40;;;12.00;57.80;;;;;;4995770;28;20437;-74
2023/04/19 02:24:04;;;;;;;29.83;21.50;;;12.00;57.80;;;;;;4997424;28;20387;-74
2023/04/19 02:26:29;;;;;;;31.63;22.57;;;11.90;58.30;;;;;;4997436;28;20394;-75
2023/04/19 02:28:55;;;;;;;32.30;21.43;;;11.80;58.80;;;;;;4995454;28;20383;-74
2023/04/19 02:31:21;;;;;;;31.27;21.60;;;11.70;60.10;;;;;;4995321;28;20405;-74
2023/04/19 02:33:46;;;;;;;32.60;23.10;;;11.70;61.00;;;;;;4996382;28;20464;-75
2023/04/19 02:36:12;;;;;;;33.73;22.30;;;11.50;61.30;;;;;;4995967;28;20398;-74
2023/04/19 02:38:37;;;;;;;33.17;21.50;;;11.50;61.70;;;;;;4994320;28;20469;-75
2023/04/19 02:41:05;;;;;;;35.08;21.90;;;11.50;63.30;;;;;;4993978;28;20414;-74
2023/04/19 02:43:30;;;;;;;28.67;21.38;;;11.40;62.80;;;;;;4995209;28;20391;-74
2023/04/19 02:45:56;;;;;;;31.60;22.33;;;11.30;63.60;;;;;;4994524;28;20433;-74
2023/04/19 02:48:21;;;;;;;32.87;22.50;;;11.20;64.50;;;;;;4992920;28;20417;-74
2023/04/19 02:50:47;;;;;;;33.10;21.73;;;11.10;65.10;;;;;;4994048;28;20518;-75
2023/04/19 02:53:12;;;;;;;34.97;21.67;;;11.10;65.00;;;;;;4993478;28;20448;-75
2023/04/19 02:55:38;;;;;;;32.57;20.67;;;11.10;65.30;;;;;;4993993;28;20474;-74
2023/04/19 02:58:03;;;;;;;34.42;21.85;;;11.00;66.10;;;;;;4993665;28;20481;-74
2023/04/19 03:00:29;;;;;;;36.78;22.35;;;10.90;66.80;;;;;;4992670;28;20442;-74
2023/04/19 03:02:56;;;;;;;31.85;22.77;;;10.90;66.60;;;;;;4993204;28;20811;-74
2023/04/19 03:05:22;;;;;;;35.45;23.25;;;10.80;67.70;;;;;;4993920;28;20387;-74
2023/04/19 03:07:47;;;;;;;36.80;22.80;;;10.80;68.00;;;;;;4995139;28;20456;-75
2023/04/19 03:10:13;;;;;;;35.63;22.77;;;10.80;67.50;;;;;;4998053;28;20394;-75
2023/04/19 03:12:39;;;;;;;37.17;21.73;;;10.80;67.40;;;;;;4995908;28;20457;-75
2023/04/19 03:15:05;;;;;;;34.53;23.13;;;10.80;67.70;;;;;;4993808;28;20390;-73
2023/04/19 03:17:31;;;;;;;33.95;21.83;;;10.80;67.70;;;;;;4993800;28;20408;-75
2023/04/19 03:19:57;;;;;;;35.63;22.30;;;10.80;68.00;;;;;;4992379;28;20386;-75
2023/04/19 03:22:23;;;;;;;36.40;22.33;;;10.70;68.80;;;;;;4993350;28;20391;-75
2023/04/19 03:24:48;;;;;;;32.23;21.87;;;10.70;70.60;;;;;;4993954;28;20393;-75
2023/04/19 03:27:14;;;;;;;31.83;22.30;;;10.70;69.60;;;;;;4993643;28;20383;-75
2023/04/19 03:29:40;;;;;;;31.75;23.23;;;10.80;67.90;;;;;;4993937;28;20383;-75
2023/04/19 03:32:06;;;;;;;39.03;22.10;;;10.90;68.30;;;;;;4992986;28;20482;-75
2023/04/19 03:34:32;;;;;;;33.55;22.25;;;10.80;69.30;;;;;;4993748;28;20421;-75
2023/04/19 03:36:59;;;;;;;31.70;21.02;;;10.90;68.40;;;;;;4992583;28;21371;-75
2023/04/19 03:39:25;;;;;;;31.52;21.35;;;11.10;65.00;;;;;;4993258;28;20470;-74
2023/04/19 03:41:50;;;;;;;30.90;20.10;;;11.10;63.90;;;;;;4992441;28;20501;-74
2023/04/19 03:44:16;;;;;;;30.08;20.95;;;11.10;65.30;;;;;;4992982;28;20437;-75
2023/04/19 03:46:41;;;;;;;27.63;19.80;;;11.20;63.30;;;;;;4993075;28;20402;-75
2023/04/19 03:49:07;;;;;;;31.93;19.43;;;11.30;61.10;;;;;;4992901;28;20383;-74
2023/04/19 03:51:33;;;;;;;29.53;19.40;;;11.30;59.50;;;;;;4992959;28;20907;-75
2023/04/19 03:53:59;;;;;;;26.90;18.40;;;11.30;59.50;;;;;;4992732;28;20422;-74
2023/04/19 03:56:24;;;;;;;29.67;18.80;;;11.30;58.50;;;;;;4992955;28;20387;-74
2023/04/19 03:58:50;;;;;;;25.77;17.27;;;11.30;58.00;;;;;;4992730;28;20468;-74
2023/04/19 04:01:20;;;;;;;26.40;17.52;;;11.30;57.30;;;;;;4992012;28;20461;-74
2023/04/19 04:03:46;;;;;;;28.27;17.42;;;11.30;57.00;;;;;;4992097;28;20418;-74
2023/04/19 04:06:12;;;;;;;25.63;16.37;;;11.30;56.80;;;;;;4992577;28;20799;-75
2023/04/19 04:08:38;;;;;;;27.13;16.05;;;11.40;55.80;;;;;;4991535;28;20389;-74
2023/04/19 04:11:03;;;;;;;22.98;15.25;;;11.30;55.70;;;;;;4991490;28;20390;-74
2023/04/19 04:13:29;;;;;;;22.42;15.00;;;11.30;56.80;;;;;;4992410;28;20394;-74
2023/04/19 04:15:54;;;;;;;21.05;14.10;;;11.40;54.70;;;;;;4992579;28;20445;-74
2023/04/19 04:18:20;;;;;;;20.17;13.98;;;11.30;55.00;;;;;;4991228;28;20465;-75
2023/04/19 04:20:46;;;;;;;22.13;14.10;;;11.30;55.80;;;;;;4992463;28;20510;-74
2023/04/19 04:23:13;;;;;;;18.25;13.00;;;11.40;54.00;;;;;;4991935;28;20441;-74
2023/04/19 04:25:38;;;;;;;19.67;13.00;;;11.30;54.00;;;;;;4992325;28;20481;-74
2023/04/19 04:28:04;;;;;;;17.83;11.43;;;11.40;53.00;;;;;;4992144;28;20465;-75
2023/04/19 04:30:30;;;;;;;16.97;11.37;;;11.40;50.50;;;;;;4991003;28;20406;-74
2023/04/19 04:32:57;;;;;;;14.77;10.55;;;11.40;49.60;;;;;;4991340;28;20389;-74
2023/04/19 04:35:23;;;;;;;16.05;10.65;;;11.40;49.30;;;;;;4991931;28;20403;-74
2023/04/19 04:37:48;;;;;;;16.10;10.43;;;11.40;48.50;;;;;;4992129;28;20386;-75
2023/04/19 04:40:15;;;;;;;13.48;9.90;;;11.40;47.80;;;;;;4992110;28;20410;-74
2023/04/19 04:42:41;;;;;;;15.37;10.10;;;11.40;47.70;;;;;;4990080;28;20395;-75
2023/04/19 04:45:09;;;;;;;15.73;9.23;;;11.40;47.20;;;;;;4991975;28;20386;-75
2023/04/19 04:47:35;;;;;;;14.35;9.63;;;11.50;46.30;;;;;;4991764;28;20492;-74
2023/04/19 04:50:02;;;;;;;14.18;9.98;;;11.50;46.90;;;;;;4991793;28;20410;-75
2023/04/19 04:52:28;;;;;;;15.18;9.35;;;11.50;45.90;;;;;;4991444;28;20440;-74
2023/04/19 04:54:54;;;;;;;14.40;8.80;;;11.40;45.40;;;;;;4992008;28;20437;-73
2023/04/19 04:57:19;;;;;;;25.50;9.40;;;11.50;44.90;;;;;;4991658;28;20783;-75
2023/04/19 04:59:46;;;;;;;22.15;9.00;;;11.50;43.90;;;;;;4991791;28;20429;-74
2023/04/19 05:02:15;;;;;;;20.75;9.38;;;11.50;43.70;;;;;;4990965;28;20421;-76
2023/04/19 05:04:41;;;;;;;13.82;9.05;;;11.60;42.50;;;;;;4991694;28;20429;-75
2023/04/19 05:07:07;;;;;;;18.65;9.48;;;11.50;42.10;;;;;;4991600;28;20785;-75
2023/04/19 05:09:32;;;;;;;40.80;11.20;;;11.60;41.70;;;;;;4994011;28;20445;-74
2023/04/19 05:11:58;;;;;;;14.13;7.70;;;11.50;41.30;;;;;;4990243;28;20398;-74
2023/04/19 05:14:24;;;;;;;13.63;9.10;;;11.40;40.10;;;;;;4991615;28;20490;-75
2023/04/19 05:16:49;;;;;;;10.27;7.40;;;11.30;39.10;;;;;;4991750;28;20398;-75
2023/04/19 05:19:15;;;;;;;12.63;7.82;;;11.30;38.50;;;;;;4991679;28;20397;-75
2023/04/19 05:21:40;;;;;;;11.38;7.22;;;11.30;39.20;;;;;;4990270;28;20421;-75
2023/04/19 05:24:08;;;;;;;12.57;7.20;;;11.20;37.50;;;;;;4991756;28;20401;-74
2023/04/19 05:26:34;;;;;;;14.40;8.27;;;11.20;37.50;;;;;;4991259;28;20954;-74
2023/04/19 05:29:00;;;;;;;12.02;7.63;;;11.10;37.40;;;;;;4991250;28;20537;-75
2023/04/19 05:31:25;;;;;;;12.25;7.47;;;11.10;36.40;;;;;;4991034;28;20390;-75
2023/04/19 05:33:51;;;;;;;15.77;7.57;;;11.10;36.30;;;;;;4991239;28;20457;-75
2023/04/19 05:36:16;;;;;;;13.13;7.53;;;11.00;35.40;;;;;;4991442;28;20469;-75
2023/04/19 05:38:42;;;;;;;11.98;7.65;;;11.00;35.50;;;;;;4991229;28;20437;-77
2023/04/19 05:41:07;;;;;;;12.90;7.97;;;10.90;35.80;;;;;;4989260;28;20406;-74
2023/04/19 05:43:33;;;;;;;12.93;7.50;;;11.00;35.20;;;;;;4991037;28;20465;-75
2023/04/19 05:45:58;;;;;;;11.27;7.87;;;11.00;35.40;;;;;;4990835;28;20390;-73
2023/04/19 05:48:27;;;;;;;11.53;7.20;;;10.90;34.20;;;;;;4991402;28;20386;-75
2023/04/19 05:50:53;;;;;;;11.75;7.70;;;11.00;34.30;;;;;;4991151;28;20390;-75
2023/04/19 05:53:19;;;;;;;15.00;8.10;;;11.00;33.80;;;;;;4991417;28;20745;-75
2023/04/19 05:55:46;;;;;;;11.47;7.40;;;11.00;33.40;;;;;;4990151;28;20434;-75
2023/04/19 05:58:12;;;;;;;10.18;7.50;;;11.10;33.00;;;;;;4990180;28;20437;-76
2023/04/19 06:00:38;;;;;;;11.57;7.40;;;11.20;32.00;;;;;;4989918;28;20434;-76
2023/04/19 06:03:03;;;;;;;10.35;7.90;;;11.20;31.90;;;;;;4990610;28;20816;-76
2023/04/19 06:05:29;;;;;;;11.52;7.80;;;11.10;32.00;;;;;;4991261;28;20733;-76
2023/04/19 06:07:55;;;;;;;13.20;7.82;;;11.20;31.70;;;;;;4991394;28;20772;-75
2023/04/19 06:10:22;;;;;;;11.20;7.82;;;11.20;31.80;;;;;;4991255;28;20398;-76
2023/04/19 06:12:48;;;;;;;13.93;7.88;;;11.20;31.50;;;;;;4990876;28;20421;-76
2023/04/19 06:15:13;;;;;;;13.52;8.90;;;11.20;31.10;;;;;;4994581;28;20445;-76
2023/04/19 06:17:39;;;;;;;15.60;8.63;;;11.10;32.10;;;;;;4996021;28;20406;-75
2023/04/19 06:20:07;;;;;;;14.18;8.30;;;11.20;30.60;;;;;;4991210;28;20477;-76
2023/04/19 06:22:32;;;;;;;12.35;8.07;;;11.20;30.10;;;;;;4992183;28;20453;-76
2023/04/19 06:24:58;;;;;;;12.95;8.13;;;11.20;31.20;;;;;;4989366;28;20417;-76
2023/04/19 06:27:23;;;;;;;14.68;8.13;;;11.30;30.80;;;;;;4990863;28;20418;-75
2023/04/19 06:29:49;;;;;;;14.50;8.45;;;11.40;30.70;;;;;;4990938;28;20391;-76
2023/04/19 06:32:15;;;;;;;12.80;8.70;;;11.30;31.40;;;;;;4993271;28;20393;-75
2023/04/19 06:34:40;;;;;;;14.38;8.90;;;11.40;28.80;;;;;;4996587;28;20408;-76
2023/04/19 06:37:06;;;;;;;15.25;8.60;;;11.30;28.90;;;;;;4995303;28;20725;-76
2023/04/19 06:39:31;;;;;;;13.45;9.18;;;11.30;29.70;;;;;;4995409;28;20382;-75
2023/04/19 06:41:57;;;;;;;15.48;8.70;;;11.30;29.50;;;;;;4994317;28;20875;-75
2023/04/19 06:44:23;;;;;;;14.70;8.40;;;11.20;29.90;;;;;;4994818;28;20864;-76
2023/04/19 06:46:48;;;;;;;19.13;9.30;;;11.10;30.40;;;;;;4994438;28;20379;-74
2023/04/19 06:49:14;;;;;;;18.53;9.10;;;11.20;29.50;;;;;;4995118;28;20383;-77
2023/04/19 06:51:40;;;;;;;15.23;9.00;;;11.20;29.10;;;;;;4994699;28;20393;-74
2023/04/19 06:54:06;;;;;;;14.93;8.55;;;11.20;28.00;;;;;;4995029;28;20401;-76
2023/04/19 06:56:45;;;;;;;15.98;8.70;;;11.10;28.10;;;;;;4994889;28;20390;-75
2023/04/19 06:59:16;;;;;;;12.10;8.40;;;11.10;27.60;;;;;;4994758;28;20401;-76
2023/04/19 07:01:43;;;;;;;13.52;8.88;;;11.00;28.10;;;;;;4994179;28;20409;-76
2023/04/19 07:04:08;;;;;;;12.93;8.73;;;11.10;28.10;;;;;;4994155;28;20787;-75
2023/04/19 07:06:35;;;;;;;15.13;8.70;;;11.10;27.90;;;;;;4994736;28;20406;-76
2023/04/19 07:09:00;;;;;;;17.90;8.85;;;11.10;28.40;;;;;;4994004;28;20418;-74
2023/04/19 07:11:26;;;;;;;14.25;9.15;;;11.10;28.90;;;;;;4993698;28;20429;-75
2023/04/19 07:13:51;;;;;;;13.50;8.75;;;11.10;28.80;;;;;;4993727;28;20461;-74
2023/04/19 07:16:17;;;;;;;15.13;8.90;;;11.20;29.40;;;;;;4993405;28;20864;-73
2023/04/19 07:18:43;;;;;;;18.40;8.60;;;11.20;28.20;;;;;;4993739;28;20820;-76
2023/04/19 07:21:09;;;;;;;13.70;9.13;;;11.30;28.80;;;;;;4991862;28;20752;-76
2023/04/19 07:23:35;;;;;;;15.52;9.20;;;11.30;29.00;;;;;;4993507;28;20390;-75
2023/04/19 07:26:00;;;;;;;13.67;8.83;;;11.30;28.90;;;;;;4993934;28;20386;-75
2023/04/19 07:28:28;;;;;;;16.50;9.67;;;11.30;28.50;;;;;;4995422;28;20390;-75
2023/04/19 07:30:54;;;;;;;12.53;8.60;;;11.60;28.20;;;;;;4994404;28;20402;-75
2023/04/19 07:33:21;;;;;;;16.10;9.50;;;11.80;27.20;;;;;;4994857;28;20391;-75
2023/04/19 07:35:46;;;;;;;13.80;9.15;;;11.80;24.90;;;;;;4995508;28;20516;-75
2023/04/19 07:38:12;;;;;;;16.27;9.80;;;11.70;25.30;;;;;;4998956;28;20406;-75
2023/04/19 07:40:37;;;;;;;13.43;9.00;;;11.60;25.40;;;;;;5013539;28;20433;-75
2023/04/19 07:43:03;;;;;;;14.43;9.00;;;11.60;24.70;;;;;;5011395;28;20429;-74
2023/04/19 07:45:31;;;;;;;15.23;9.37;;;11.60;23.90;;;;;;5014547;28;20386;-73
2023/04/19 07:47:57;;;;;;;15.13;8.77;;;11.70;24.00;;;;;;5013986;28;20763;-75
2023/04/19 07:50:25;;;;;;;12.27;8.60;;;11.70;22.30;;;;;;5013462;28;20390;-74
2023/04/19 07:52:51;;;;;;;12.52;8.30;;;11.80;22.30;;;;;;5012730;28;20399;-74
2023/04/19 07:55:16;;;;;;;15.35;8.82;;;12.00;21.50;;;;;;5010184;28;20401;-74
2023/04/19 07:57:46;;;;;;;16.90;8.30;;;12.20;21.70;;;;;;5012246;28;20465;-74
2023/04/19 08:00:14;;;;;;;13.73;8.50;;;12.40;21.60;;;;;;5013183;28;20398;-75
2023/04/19 08:02:44;;;;;;;15.38;8.13;;;12.60;21.60;;;;;;4994953;28;20422;-75
2023/04/19 08:05:11;;;;;;;9.95;7.70;;;12.70;18.70;;;;;;4993374;28;20466;-75
2023/04/19 08:07:37;;;;;;;16.48;7.97;;;12.70;18.40;;;;;;4993873;28;20473;-75
2023/04/19 08:10:04;;;;;;;13.52;7.90;;;12.70;19.40;;;;;;4995140;28;20488;-76
2023/04/19 08:12:29;;;;;;;12.52;7.70;;;12.70;18.40;;;;;;4994155;28;20382;-76
2023/04/19 08:14:55;;;;;;;14.40;7.90;;;12.70;17.50;;;;;;4996463;28;20921;-75
2023/04/19 08:17:22;;;;;;;12.30;7.47;;;12.80;18.20;;;;;;4997027;28;20856;-75
2023/04/19 08:19:49;;;;;;;12.40;6.95;;;12.80;17.60;;;;;;4994619;28;20473;-75
2023/04/19 08:22:16;;;;;;;11.50;7.50;;;12.90;16.90;;;;;;4992090;28;20498;-76
2023/04/19 08:24:41;;;;;;;10.35;7.32;;;13.00;16.60;;;;;;4994312;28;20391;-75
2023/04/19 08:27:08;;;;;;;13.20;7.00;;;13.10;16.20;;;;;;4993494;28;20875;-74
2023/04/19 08:29:34;;;;;;;13.63;7.20;;;13.20;15.40;;;;;;4992951;28;20452;-74
2023/04/19 08:32:00;;;;;;;14.93;7.07;;;13.20;15.30;;;;;;4991474;28;20398;-76
2023/04/19 08:34:26;;;;;;;14.02;6.85;;;12.90;15.10;;;;;;4992459;28;20456;-76
2023/04/19 08:36:52;;;;;;;12.40;6.57;;;12.90;14.70;;;;;;4993405;28;20401;-76
2023/04/19 08:39:17;;;;;;;9.80;6.90;;;12.80;15.40;;;;;;4992623;28;20394;-75
2023/04/19 08:41:43;;;;;;;13.10;6.27;;;12.90;15.30;;;;;;4990344;28;20915;-76
2023/04/19 08:44:11;;;;;;;11.90;6.27;;;12.90;14.00;;;;;;4990696;28;20777;-75
2023/04/19 08:46:37;;;;;;;14.90;6.00;;;13.00;13.90;;;;;;4990808;28;20467;-75
2023/04/19 08:49:04;;;;;;;13.00;6.20;;;13.00;14.40;;;;;;4992103;28;20382;-75
2023/04/19 08:51:31;;;;;;;13.53;5.87;;;13.00;13.30;;;;;;4991497;28;20514;-75
2023/04/19 08:53:58;;;;;;;11.13;5.15;;;13.00;13.50;;;;;;4992295;28;20385;-75
2023/04/19 08:56:25;;;;;;;10.77;5.40;;;12.90;13.30;;;;;;4992403;28;20430;-75
2023/04/19 08:58:51;;;;;;;11.02;5.30;;;12.80;13.20;;;;;;4990844;28;20395;-75
2023/04/19 09:01:16;;;;;;;10.32;5.30;;;12.80;13.20;;;;;;4991601;28;20898;-76
2023/04/19 09:03:45;;;;;;;9.77;5.47;;;12.80;14.00;;;;;;4991718;28;20390;-76
2023/04/19 09:06:11;;;;;;;9.00;5.13;;;12.90;14.20;;;;;;4991976;28;20387;-74
2023/04/19 09:08:38;;;;;;;13.07;5.55;;;13.00;12.50;;;;;;4991901;28;20828;-75
2023/04/19 09:11:04;;;;;;;8.00;4.70;;;13.00;13.30;;;;;;4991147;28;20402;-74
2023/04/19 09:13:30;;;;;;;8.05;5.18;;;13.20;14.30;;;;;;4991844;28;20397;-74
2023/04/19 09:15:58;;;;;;;9.93;4.70;;;13.20;13.40;;;;;;4991517;28;20393;-75
2023/04/19 09:18:23;;;;;;;10.20;5.53;;;13.20;13.40;;;;;;4991372;28;20390;-75
2023/04/19 09:20:50;;;;;;;10.80;5.70;;;13.30;13.50;;;;;;4991196;28;20493;-75
2023/04/19 09:23:17;;;;;;;9.35;5.38;;;13.30;13.40;;;;;;4991333;28;20955;-74
2023/04/19 09:25:56;;;;;;;18.15;6.93;;;13.30;12.50;;;;;;4992441;28;20405;-74
2023/04/19 09:28:23;;;;;;;12.07;5.78;;;13.30;13.70;;;;;;4994731;28;20390;-76
2023/04/19 09:30:49;;;;;;;7.75;5.00;;;13.40;13.40;;;;;;4992754;28;20442;-76
2023/04/19 09:33:38;;;;;;;9.77;5.75;;;13.30;12.40;;;;;;4992327;28;20390;-76
2023/04/19 09:36:04;;;;;;;10.45;5.15;;;13.10;13.20;;;;;;5015827;23;20430;-71
2023/04/19 09:38:44;;;;;;;10.82;4.88;;;13.20;13.00;;;;;;4993277;28;20416;-71
2023/04/19 09:41:10;;;;;;;12.00;4.90;;;13.30;13.30;;;;;;4992882;28;20898;-71
2023/04/19 09:43:36;;;;;;;9.63;4.63;;;13.50;13.40;;;;;;4991264;28;20429;-71
2023/04/19 09:46:01;;;;;;;7.20;4.10;;;13.60;11.40;;;;;;4991799;28;20863;-70
2023/04/19 09:48:27;;;;;;;9.73;4.10;;;13.40;11.30;;;;;;4993461;28;20465;-70
2023/04/19 09:51:00;;;;;;;8.02;4.20;;;13.30;11.60;;;;;;4992233;28;20394;-72
2023/04/19 09:53:28;;;;;;;11.68;5.13;;;13.40;11.20;;;;;;4992002;28;20391;-71
2023/04/19 09:55:54;;;;;;;9.87;4.40;;;13.40;10.90;;;;;;4992424;28;20383;-71
2023/04/19 09:58:20;;;;;;;9.33;4.30;;;13.40;11.50;;;;;;4993489;28;20775;-71
2023/04/19 10:00:48;;;;;;;6.20;3.92;;;13.50;11.60;;;;;;4991879;28;20403;-72
2023/04/19 10:03:15;;;;;;;6.30;4.10;;;13.60;11.00;;;;;;4994962;28;20418;-72
2023/04/19 10:05:42;;;;;;;5.38;4.10;;;13.60;10.90;;;;;;4993548;28;20394;-72
2023/04/19 10:08:09;;;;;;;8.43;4.10;;;13.80;10.30;;;;;;4997440;28;20409;-72
2023/04/19 10:10:35;;;;;;;7.93;4.10;;;13.80;8.40;;;;;;4996980;28;20836;-71
2023/04/19 10:13:03;;;;;;;5.50;3.70;;;13.70;8.60;;;;;;4996564;28;20401;-71
2023/04/19 10:15:30;;;;;;;7.32;3.80;;;13.70;8.90;;;;;;4996110;28;20390;-71
2023/04/19 10:17:56;;;;;;;4.05;3.05;;;13.80;9.90;;;;;;4996351;28;20405;-71
2023/04/19 10:20:32;;;;;;;4.60;2.93;;;14.00;8.70;;;;;;4996505;28;20894;-72
2023/04/19 10:22:59;;;;;;;5.75;3.30;;;14.20;7.60;;;;;;4995260;28;20383;-71
2023/04/19 10:25:29;;;;;;;8.50;3.20;;;14.10;8.10;;;;;;4995888;28;20414;-71
2023/04/19 10:27:55;;;;;;;5.15;3.20;;;13.90;6.60;;;;;;4995801;28;20404;-70
2023/04/19 10:30:22;;;;;;;7.35;3.20;;;13.70;7.20;;;;;;4996051;28;20396;-72
2023/04/19 10:32:55;;;;;;;4.80;2.50;;;13.80;7.50;;;;;;4996460;28;20449;-70
2023/04/19 10:35:28;;;;;;;7.78;2.70;;;13.90;6.80;;;;;;4996337;28;20394;-71
2023/04/19 10:38:07;;;;;;;7.78;3.10;;;14.00;5.00;;;;;;4996159;28;20490;-71
2023/04/19 10:40:56;;;;;;;10.53;2.47;;;14.10;6.90;;;;;;4994578;28;20834;-71
2023/04/19 10:43:23;;;;;;;6.13;2.90;;;14.00;4.50;;;;;;4995793;28;20387;-71
2023/04/19 10:45:49;;;;;;;5.78;2.70;;;13.80;4.90;;;;;;4995765;28;20417;-71
2023/04/19 10:48:32;;;;;;;4.10;2.42;;;13.70;5.20;;;;;;4996888;28;20918;-72
2023/04/19 10:51:13;;;;;;;5.72;3.00;;;13.90;5.30;;;;;;4995862;28;20401;-71
2023/04/19 10:54:00;;;;;;;7.60;2.90;;;13.90;5.70;;;;;;4997201;28;20390;-71
2023/04/19 10:56:32;;;;;;;5.30;2.92;;;13.90;6.40;;;;;;4996183;28;20906;-71
2023/04/19 10:59:00;;;;;;;6.43;3.13;;;14.00;4.90;;;;;;4996404;28;20468;-71
2023/04/19 11:01:39;;;;;;;9.93;3.05;;;13.90;5.30;;;;;;4995766;28;20406;-71
2023/04/19 11:04:30;;;;;;;6.05;3.40;;;14.00;4.40;;;;;;4995860;28;20409;-71
2023/04/19 11:07:13;;;;;;;;;;;;;;;;;;;;;
2023/04/19 11:09:44;;;;;;;4.93;3.22;;;14.10;4.40;;;;;;4996592;28;20442;-72
2023/04/19 11:12:44;;;;;;;6.97;3.90;;;14.20;5.00;;;;;;4995263;28;20414;-72
2023/04/19 11:15:23;;;;;;;3.58;2.88;;;14.20;4.60;;;;;;4996012;28;20496;-73
2023/04/19 11:17:51;;;;;;;9.57;3.40;;;14.20;4.60;;;;;;4995547;28;20902;-71
2023/04/19 11:20:17;;;;;;;5.60;3.30;;;14.40;5.40;;;;;;4996147;28;20386;-70
2023/04/19 11:22:46;;;;;;;7.60;3.60;;;14.60;3.70;;;;;;4994518;28;20382;-70
2023/04/19 11:25:23;;;;;;;6.45;3.88;;;14.80;3.70;;;;;;4994883;28;20437;-72
2023/04/19 11:27:51;;;;;;;7.38;3.50;;;15.00;4.90;;;;;;4994569;28;20405;-71
2023/04/19 11:30:21;;;;;;;5.07;3.20;;;15.20;4.00;;;;;;4994779;28;20386;-70
2023/04/19 11:32:49;;;;;;;4.22;3.00;;;15.20;4.00;;;;;;4994293;28;20790;-71
2023/04/19 11:35:21;;;;;;;4.50;3.70;;;15.30;2.60;;;;;;4995262;28;20399;-71
2023/04/19 11:37:47;;;;;;;10.02;3.80;;;15.30;2.70;;;;;;4995838;28;20415;-71
2023/04/19 11:40:17;;;;;;;4.60;3.20;;;14.80;3.10;;;;;;5001930;28;20383;-71
2023/04/19 11:42:43;;;;;;;4.05;3.17;;;14.70;3.10;;;;;;5007106;28;20397;-70
2023/04/19 11:45:10;;;;;;;11.10;3.93;;;14.50;3.50;;;;;;5001022;28;20385;-72
2023/04/19 11:48:15;;;;;;;8.70;3.30;;;14.50;4.60;;;;;;4997673;28;20477;-72
2023/04/19 11:50:44;;;;;;;5.47;3.50;;;14.60;4.80;;;;;;4977067;28;20406;-71
2023/04/19 11:53:20;;;;;;;6.03;3.30;;;14.70;4.20;;;;;;4990955;28;20488;-70
2023/04/19 11:55:54;;;;;;;5.35;3.10;;;14.60;3.30;;;;;;4992953;28;20398;-71
2023/04/19 11:58:36;;;;;;;8.20;3.25;;;14.70;3.90;;;;;;4992451;28;20453;-72
2023/04/19 12:01:14;;;;;;;5.63;3.67;;;14.70;4.10;;;;;;4993286;28;20417;-72
2023/04/19 12:03:43;;;;;;;6.57;3.28;;;14.90;6.80;;;;;;4992961;28;20391;-70
2023/04/19 12:06:11;;;;;;;8.88;3.90;;;15.00;2.50;;;;;;4993912;28;20830;-72
2023/04/19 12:08:42;;;;;;;5.03;3.55;;;15.00;3.80;;;;;;4994813;28;20413;-72
2023/04/19 12:11:07;;;;;;;4.57;4.07;;;14.90;4.00;;;;;;4992401;28;20489;-72
2023/04/19 12:13:35;;;;;;;7.70;3.50;;;15.00;3.40;;;;;;4993528;28;20457;-71
2023/04/19 12:16:01;;;;;;;5.07;3.88;;;15.10;4.30;;;;;;4993452;28;20401;-70
2023/04/19 12:18:26;;;;;;;5.95;4.00;;;15.00;3.80;;;;;;4993040;28;20482;-71
2023/04/19 12:20:53;;;;;;;7.97;3.67;;;14.90;2.60;;;;;;4992284;28;20504;-71
2023/04/19 12:23:20;;;;;;;6.82;3.80;;;15.00;3.50;;;;;;4993063;28;20387;-71
2023/04/19 12:25:47;;;;;;;8.82;3.83;;;15.30;3.30;;;;;;4992865;28;20383;-71
2023/04/19 12:28:14;;;;;;;5.72;3.72;;;15.40;2.20;;;;;;4993410;28;20391;-70
2023/04/19 12:30:40;;;;;;;9.10;4.60;;;15.30;1.30;;;;;;4992321;28;20891;-70
2023/04/19 12:33:07;;;;;;;11.37;3.90;;;15.40;3.20;;;;;;4992037;28;20413;-71
2023/04/19 12:35:34;;;;;;;5.20;3.90;;;15.50;2.40;;;;;;4992958;28;20505;-71
2023/04/19 12:38:01;;;;;;;8.68;4.10;;;15.60;1.60;;;;;;4993692;28;20756;-72